Wetterdaten: Woche 05.12.22 - 11.12.22 (KW49)
Datum Zeit Temp. Aussen Temp. o. S. Temp +5cm Feuchte Auss Luftdruck Regen Sonnenschein Regendauer Solar Windben Empfang
05.12.2022 00:00 2,3 C 1,7 C -1,1 C 95 % 1017,2 hPa 0,0 l/m 0,00 h 0,00 h 0 W/m 5,4 km/h (1 Bft) 96,30 %
05.12.2022 01:00 2,2 C 1,7 C -0,9 C 95 % 1017,1 hPa 0,0 l/m 0,00 h 0,00 h 0 W/m 7,0 km/h (2 Bft) 97,65 %
05.12.2022 02:00 2,3 C 1,7 C -0,6 C 95 % 1017,1 hPa 0,0 l/m 0,00 h 0,00 h 0 W/m 6,2 km/h (2 Bft) 98,36 %
05.12.2022 03:00 2,3 C 1,7 C -0,6 C 95 % 1017,3 hPa 0,0 l/m 0,00 h 0,00 h 0 W/m 5,7 km/h (1 Bft) 95,72 %
05.12.2022 04:00 2,4 C 2,1 C -0,6 C 95 % 1017,4 hPa 0,0 l/m 0,00 h 0,00 h 0 W/m 6,0 km/h (2 Bft) 98,00 %
05.12.2022 05:00 2,4 C 2,0 C -0,6 C 95 % 1017,5 hPa 0,0 l/m 0,00 h 0,15 h 0 W/m 2,3 km/h (1 Bft) 98,87 %
05.12.2022 06:00 2,4 C 1,7 C -0,9 C 95 % 1017,7 hPa 0,2 l/m 0,00 h 0,97 h 0 W/m 0,0 km/h (0 Bft) 93,63 %
05.12.2022 07:00 2,4 C 1,7 C -0,8 C 96 % 1018,0 hPa 0,4 l/m 0,00 h 1,00 h 0 W/m 0,0 km/h (0 Bft) 99,47 %
05.12.2022 08:00 2,2 C 1,7 C -1,1 C 96 % 1018,5 hPa 0,8 l/m 0,00 h 1,05 h 6 W/m 0,6 km/h (0 Bft) 98,96 %
05.12.2022 09:00 1,9 C 1,5 C -1,1 C 96 % 1018,9 hPa 0,8 l/m 0,00 h 1,00 h 18 W/m 1,0 km/h (0 Bft) 94,16 %
05.12.2022 10:00 1,8 C 1,8 C -1,1 C 97 % 1019,4 hPa 0,6 l/m 0,00 h 1,00 h 63 W/m 1,2 km/h (1 Bft) 98,65 %
05.12.2022 11:00 1,9 C 1,8 C -0,9 C 97 % 1019,4 hPa 0,4 l/m 0,00 h 1,00 h 57 W/m 2,7 km/h (1 Bft) 94,33 %
05.12.2022 12:00 1,6 C 1,1 C -1,1 C 97 % 1019,4 hPa 1,0 l/m 0,00 h 1,00 h 53 W/m 4,6 km/h (1 Bft) 97,56 %
05.12.2022 13:00 1,1 C 0,7 C -1,7 C 97 % 1019,3 hPa 0,4 l/m 0,00 h 1,00 h 35 W/m 1,0 km/h (0 Bft) 94,66 %
05.12.2022 14:00 0,8 C 0,6 C -1,8 C 97 % 1019,2 hPa 0,4 l/m 0,00 h 0,90 h 31 W/m 0,0 km/h (0 Bft) 98,51 %
05.12.2022 15:00 0,7 C 0,0 C -2,0 C 97 % 1019,4 hPa 0,2 l/m 0,00 h 0,83 h 13 W/m 0,3 km/h (0 Bft) 97,94 %
05.12.2022 16:00 0,4 C -0,4 C -2,7 C 98 % 1019,7 hPa 0,0 l/m 0,00 h 0,83 h 0 W/m 0,0 km/h (0 Bft) 94,59 %
05.12.2022 17:00 0,3 C -0,3 C -2,5 C 98 % 1020,0 hPa 0,0 l/m 0,00 h 0,87 h 0 W/m 0,0 km/h (0 Bft) 95,29 %
05.12.2022 18:00 0,4 C 0,0 C -2,2 C 98 % 1020,1 hPa 0,0 l/m 0,00 h 0,60 h 0 W/m 0,1 km/h (0 Bft) 96,77 %
05.12.2022 19:00 0,6 C 0,0 C -1,7 C 98 % 1020,3 hPa 0,2 l/m 0,00 h 0,45 h 0 W/m 0,0 km/h (0 Bft) 97,48 %
05.12.2022 20:00 0,8 C 0,3 C -1,6 C 98 % 1020,7 hPa 0,2 l/m 0,00 h 0,70 h 0 W/m 0,0 km/h (0 Bft) 96,01 %
05.12.2022 21:00 1,2 C 0,6 C -1,2 C 98 % 1020,6 hPa 0,4 l/m 0,00 h 0,30 h 0 W/m 0,5 km/h (0 Bft) 98,79 %
05.12.2022 22:00 1,1 C 0,6 C -1,1 C 98 % 1020,5 hPa 0,2 l/m 0,00 h 0,00 h 0 W/m 0,0 km/h (0 Bft) 97,70 %
05.12.2022 23:00 1,4 C 1,1 C -1,1 C 99 % 1020,5 hPa 0,6 l/m 0,00 h 0,07 h 0 W/m 0,0 km/h (0 Bft) 95,28 %
06.12.2022 00:00 1,6 C 1,1 C -0,6 C 99 % 1020,3 hPa 0,4 l/m 0,00 h 0,00 h 0 W/m 1,2 km/h (1 Bft) 95,90 %
06.12.2022 01:00 1,8 C 1,1 C -0,6 C 99 % 1020,2 hPa 0,4 l/m 0,00 h 0,20 h 0 W/m 2,2 km/h (1 Bft) 96,30 %
06.12.2022 02:00 2,1 C 1,7 C -0,0 C 99 % 1020,1 hPa 0,4 l/m 0,00 h 0,00 h 0 W/m 0,9 km/h (0 Bft) 96,92 %
06.12.2022 03:00 2,4 C 2,0 C 0,2 C 99 % 1020,0 hPa 0,2 l/m 0,00 h 0,00 h 0 W/m 0,0 km/h (0 Bft) 95,77 %
06.12.2022 04:00 2,7 C 2,2 C 0,6 C 99 % 1019,7 hPa 0,4 l/m 0,00 h 0,00 h 0 W/m 0,0 km/h (0 Bft) 96,79 %
06.12.2022 05:00 2,9 C 2,5 C 0,8 C 99 % 1019,7 hPa 0,4 l/m 0,00 h 0,00 h 0 W/m 0,0 km/h (0 Bft) 95,06 %
06.12.2022 06:00 3,2 C 2,8 C 1,1 C 99 % 1019,7 hPa 0,2 l/m 0,00 h 0,00 h 0 W/m 0,0 km/h (0 Bft) 96,46 %
06.12.2022 07:00 3,6 C 3,2 C 1,5 C 99 % 1019,7 hPa 0,0 l/m 0,00 h 0,00 h 0 W/m 0,0 km/h (0 Bft) 97,16 %
06.12.2022 08:00 3,8 C 3,3 C 1,7 C 99 % 1019,7 hPa 0,2 l/m 0,00 h 0,07 h 7 W/m 0,0 km/h (0 Bft) 95,59 %
06.12.2022 09:00 4,1 C 3,7 C 2,0 C 99 % 1019,9 hPa 0,0 l/m 0,00 h 0,00 h 20 W/m 0,6 km/h (0 Bft) 98,19 %
06.12.2022 10:00 4,3 C 4,1 C 2,2 C 100 % 1020,2 hPa 0,0 l/m 0,00 h 0,00 h 44 W/m 9,0 km/h (2 Bft) 97,72 %
06.12.2022 11:00 4,5 C 4,6 C 2,7 C 99 % 1020,1 hPa 0,0 l/m 0,00 h 0,00 h 74 W/m 10,1 km/h (2 Bft) 94,18 %
06.12.2022 12:00 4,8 C 5,0 C 2,8 C 100 % 1019,8 hPa 0,0 l/m 0,00 h 0,00 h 93 W/m 8,9 km/h (2 Bft) 94,88 %
06.12.2022 13:00 5,1 C 6,2 C 2,6 C 99 % 1019,6 hPa 0,0 l/m 0,48 h 0,00 h 143 W/m 8,0 km/h (2 Bft) 98,50 %
06.12.2022 14:00 5,4 C 5,6 C 2,5 C 98 % 1019,4 hPa 0,0 l/m 0,30 h 0,00 h 108 W/m 4,6 km/h (1 Bft) 93,85 %
06.12.2022 15:00 5,3 C 5,0 C 2,4 C 95 % 1019,2 hPa 0,0 l/m 0,00 h 0,00 h 33 W/m 4,6 km/h (1 Bft) 97,87 %
06.12.2022 16:00 5,1 C 4,4 C 2,2 C 94 % 1019,2 hPa 0,0 l/m 0,00 h 0,00 h 8 W/m 1,8 km/h (1 Bft) 95,60 %
06.12.2022 17:00 5,1 C 4,4 C 2,2 C 93 % 1019,1 hPa 0,0 l/m 0,00 h 0,00 h 0 W/m 2,0 km/h (1 Bft) 96,44 %
06.12.2022 18:00 5,0 C 4,5 C 2,2 C 93 % 1018,8 hPa 0,0 l/m 0,00 h 0,00 h 0 W/m 2,8 km/h (1 Bft) 96,52 %
06.12.2022 19:00 5,1 C 4,5 C 2,2 C 93 % 1018,7 hPa 0,0 l/m 0,00 h 0,07 h 0 W/m 4,8 km/h (1 Bft) 96,38 %
06.12.2022 20:00 4,9 C 4,4 C 2,2 C 93 % 1018,6 hPa 0,0 l/m 0,00 h 0,27 h 0 W/m 5,5 km/h (1 Bft) 95,26 %
06.12.2022 21:00 4,8 C 4,4 C 2,2 C 95 % 1018,3 hPa 0,0 l/m 0,00 h 0,00 h 0 W/m 7,9 km/h (2 Bft) 95,45 %
06.12.2022 22:00 4,7 C 3,9 C 1,8 C 95 % 1018,2 hPa 0,0 l/m 0,00 h 0,27 h 0 W/m 5,6 km/h (1 Bft) 98,36 %
06.12.2022 23:00 4,6 C 3,9 C 1,7 C 96 % 1018,2 hPa 0,0 l/m 0,00 h 0,00 h 0 W/m 4,7 km/h (1 Bft) 96,30 %
07.12.2022 00:00 4,6 C 3,9 C 1,7 C 97 % 1018,0 hPa 0,2 l/m 0,00 h 0,17 h 0 W/m 5,5 km/h (1 Bft) 93,89 %
07.12.2022 01:00 4,5 C 3,9 C 1,7 C 97 % 1017,8 hPa 0,0 l/m 0,00 h 0,00 h 0 W/m 6,7 km/h (2 Bft) 93,73 %
07.12.2022 02:00 4,3 C 3,7 C 1,7 C 97 % 1017,6 hPa 0,0 l/m 0,00 h 0,00 h 0 W/m 6,7 km/h (2 Bft) 93,98 %
07.12.2022 03:00 4,0 C 3,3 C 1,7 C 98 % 1017,5 hPa 0,0 l/m 0,00 h 0,00 h 0 W/m 8,0 km/h (2 Bft) 98,74 %
07.12.2022 04:00 3,7 C 2,9 C 1,3 C 98 % 1017,4 hPa 0,0 l/m 0,00 h 0,00 h 0 W/m 5,4 km/h (1 Bft) 97,19 %
07.12.2022 05:00 3,3 C 2,7 C 1,1 C 98 % 1017,4 hPa 0,0 l/m 0,00 h 0,00 h 0 W/m 3,6 km/h (1 Bft) 97,01 %
07.12.2022 06:00 3,4 C 2,9 C 1,4 C 98 % 1017,3 hPa 0,0 l/m 0,00 h 0,00 h 0 W/m 5,3 km/h (1 Bft) 96,17 %
07.12.2022 07:00 3,6 C 3,3 C 1,7 C 98 % 1017,2 hPa 0,0 l/m 0,00 h 0,00 h 0 W/m 5,6 km/h (1 Bft) 96,20 %
07.12.2022 08:00 3,4 C 2,8 C 1,4 C 98 % 1017,3 hPa 0,0 l/m 0,00 h 0,00 h 9 W/m 4,8 km/h (1 Bft) 98,47 %
07.12.2022 09:00 3,3 C 3,2 C 1,3 C 98 % 1017,6 hPa 0,0 l/m 0,00 h 0,00 h 37 W/m 5,2 km/h (1 Bft) 95,45 %
07.12.2022 10:00 3,9 C 4,0 C 2,0 C 98 % 1017,6 hPa 0,0 l/m 0,20 h 0,00 h 84 W/m 6,9 km/h (2 Bft) 98,91 %
07.12.2022 11:00 4,5 C 4,6 C 2,8 C 97 % 1017,4 hPa 0,0 l/m 0,00 h 0,00 h 67 W/m 7,5 km/h (2 Bft) 96,36 %
07.12.2022 12:00 5,5 C 5,9 C 3,4 C 94 % 1016,8 hPa 0,0 l/m 0,03 h 0,00 h 105 W/m 9,5 km/h (2 Bft) 97,09 %
07.12.2022 13:00 6,0 C 6,3 C 3,7 C 92 % 1016,3 hPa 0,0 l/m 0,27 h 0,00 h 113 W/m 9,4 km/h (2 Bft) 98,00 %
07.12.2022 14:00 5,8 C 5,7 C 3,2 C 90 % 1015,8 hPa 0,0 l/m 0,07 h 0,00 h 69 W/m 5,7 km/h (1 Bft) 96,50 %
07.12.2022 15:00 5,9 C 5,7 C 3,3 C 90 % 1015,3 hPa 0,0 l/m 0,27 h 0,00 h 50 W/m 4,1 km/h (1 Bft) 97,16 %
07.12.2022 16:00 5,5 C 4,8 C 2,5 C 90 % 1014,9 hPa 0,0 l/m 0,13 h 0,00 h 12 W/m 5,3 km/h (1 Bft) 97,79 %
07.12.2022 17:00 5,1 C 4,4 C 2,2 C 93 % 1014,8 hPa 0,0 l/m 0,00 h 0,00 h 0 W/m 5,1 km/h (1 Bft) 96,37 %
07.12.2022 18:00 4,7 C 4,1 C 1,8 C 94 % 1014,4 hPa 0,0 l/m 0,00 h 0,00 h 0 W/m 4,7 km/h (1 Bft) 98,20 %
07.12.2022 19:00 4,8 C 4,3 C 1,8 C 94 % 1014,0 hPa 0,0 l/m 0,00 h 0,00 h 0 W/m 4,2 km/h (1 Bft) 96,44 %
07.12.2022 20:00 4,6 C 3,9 C 1,7 C 95 % 1013,6 hPa 0,0 l/m 0,00 h 0,00 h 0 W/m 7,2 km/h (2 Bft) 99,63 %
07.12.2022 21:00 4,3 C 3,8 C 1,6 C 95 % 1013,3 hPa 0,0 l/m 0,00 h 0,00 h 0 W/m 5,5 km/h (1 Bft) 95,79 %
07.12.2022 22:00 4,0 C 3,3 C 1,1 C 95 % 1012,9 hPa 0,0 l/m 0,00 h 0,00 h 0 W/m 5,0 km/h (1 Bft) 98,76 %
07.12.2022 23:00 3,8 C 3,3 C 1,1 C 95 % 1012,6 hPa 0,0 l/m 0,00 h 0,00 h 0 W/m 5,9 km/h (2 Bft) 97,73 %
08.12.2022 00:00 3,6 C 2,9 C 1,1 C 96 % 1012,0 hPa 0,0 l/m 0,00 h 0,00 h 0 W/m 5,2 km/h (1 Bft) 95,41 %
08.12.2022 01:00 3,4 C 2,8 C 0,7 C 96 % 1011,3 hPa 0,0 l/m 0,00 h 0,00 h 0 W/m 4,8 km/h (1 Bft) 98,76 %
08.12.2022 02:00 3,5 C 3,1 C 1,0 C 97 % 1010,9 hPa 0,0 l/m 0,00 h 0,00 h 0 W/m 7,9 km/h (2 Bft) 96,26 %
08.12.2022 03:00 3,7 C 3,3 C 1,1 C 96 % 1010,5 hPa 0,0 l/m 0,00 h 0,00 h 0 W/m 7,7 km/h (2 Bft) 97,46 %
08.12.2022 04:00 3,7 C 3,3 C 1,1 C 96 % 1009,9 hPa 0,0 l/m 0,00 h 0,00 h 0 W/m 10,5 km/h (2 Bft) 99,25 %
08.12.2022 05:00 3,8 C 3,3 C 1,1 C 96 % 1009,2 hPa 0,0 l/m 0,00 h 0,07 h 0 W/m 9,8 km/h (2 Bft) 99,23 %
08.12.2022 06:00 3,9 C 3,3 C 1,1 C 96 % 1008,9 hPa 0,2 l/m 0,00 h 0,23 h 0 W/m 10,7 km/h (2 Bft) 95,94 %
08.12.2022 07:00 3,7 C 3,3 C 1,1 C 96 % 1008,7 hPa 0,2 l/m 0,00 h 1,00 h 0 W/m 7,7 km/h (2 Bft) 97,63 %
08.12.2022 08:00 3,5 C 2,8 C 0,7 C 96 % 1008,9 hPa 0,6 l/m 0,00 h 1,00 h 3 W/m 10,9 km/h (2 Bft) 98,22 %
08.12.2022 09:00 3,3 C 2,8 C 0,6 C 96 % 1008,8 hPa 0,4 l/m 0,00 h 0,83 h 16 W/m 7,4 km/h (2 Bft) 96,08 %
08.12.2022 10:00 3,4 C 3,1 C 0,9 C 97 % 1008,8 hPa 0,0 l/m 0,00 h 0,60 h 37 W/m 10,9 km/h (2 Bft) 97,01 %
08.12.2022 11:00 3,6 C 3,5 C 1,1 C 97 % 1008,6 hPa 0,0 l/m 0,00 h 0,27 h 64 W/m 9,7 km/h (2 Bft) 98,37 %
08.12.2022 12:00 3,9 C 3,9 C 1,2 C 96 % 1008,1 hPa 0,0 l/m 0,00 h 0,13 h 66 W/m 11,1 km/h (2 Bft) 95,73 %
08.12.2022 13:00 4,0 C 3,9 C 1,2 C 95 % 1007,8 hPa 0,0 l/m 0,00 h 0,10 h 62 W/m 9,9 km/h (2 Bft) 95,66 %
08.12.2022 14:00 4,2 C 4,1 C 1,1 C 93 % 1007,6 hPa 0,0 l/m 0,00 h 0,00 h 36 W/m 7,5 km/h (2 Bft) 96,43 %
08.12.2022 15:00 4,4 C 4,2 C 1,5 C 90 % 1007,3 hPa 0,0 l/m 0,00 h 0,00 h 27 W/m 9,2 km/h (2 Bft) 97,11 %
08.12.2022 16:00 4,1 C 3,7 C 1,1 C 89 % 1007,3 hPa 0,0 l/m 0,00 h 0,00 h 8 W/m 10,1 km/h (2 Bft) 97,33 %
08.12.2022 17:00 3,9 C 3,3 C 1,1 C 90 % 1007,4 hPa 0,0 l/m 0,00 h 0,00 h 0 W/m 7,9 km/h (2 Bft) 96,94 %
08.12.2022 18:00 3,9 C 3,3 C 1,1 C 91 % 1007,4 hPa 0,0 l/m 0,00 h 0,00 h 0 W/m 4,8 km/h (1 Bft) 98,80 %
08.12.2022 19:00 3,8 C 3,2 C 1,0 C 91 % 1007,4 hPa 0,0 l/m 0,00 h 0,00 h 0 W/m 5,2 km/h (1 Bft) 95,78 %
08.12.2022 20:00 2,8 C 1,7 C -0,4 C 91 % 1007,5 hPa 0,0 l/m 0,00 h 0,00 h 0 W/m 3,7 km/h (1 Bft) 96,57 %
08.12.2022 21:00 2,4 C 2,1 C -0,1 C 93 % 1007,6 hPa 0,0 l/m 0,00 h 0,00 h 0 W/m 7,1 km/h (2 Bft) 97,75 %
08.12.2022 22:00 2,8 C 2,2 C 0,0 C 93 % 1007,6 hPa 0,0 l/m 0,00 h 0,00 h 0 W/m 7,1 km/h (2 Bft) 95,49 %
08.12.2022 23:00 2,7 C 2,2 C 0,0 C 92 % 1007,6 hPa 0,0 l/m 0,00 h 0,00 h 0 W/m 5,1 km/h (1 Bft) 97,90 %
09.12.2022 00:00 2,6 C 2,2 C 0,0 C 92 % 1007,5 hPa 0,0 l/m 0,00 h 0,00 h 0 W/m 5,2 km/h (1 Bft) 95,01 %
09.12.2022 01:00 2,1 C 1,2 C -0,9 C 92 % 1007,3 hPa 0,0 l/m 0,00 h 0,00 h 0 W/m 2,3 km/h (1 Bft) 98,03 %
09.12.2022 02:00 1,8 C 1,1 C -0,6 C 92 % 1007,3 hPa 0,0 l/m 0,00 h 0,00 h 0 W/m 2,1 km/h (1 Bft) 94,92 %
09.12.2022 03:00 1,7 C 1,1 C -0,7 C 93 % 1007,2 hPa 0,0 l/m 0,00 h 0,00 h 0 W/m 2,3 km/h (1 Bft) 97,86 %
09.12.2022 04:00 1,7 C 1,1 C -0,9 C 93 % 1006,9 hPa 0,0 l/m 0,00 h 0,00 h 0 W/m 2,6 km/h (1 Bft) 98,65 %
09.12.2022 05:00 1,7 C 1,1 C -0,6 C 93 % 1006,7 hPa 0,0 l/m 0,00 h 0,00 h 0 W/m 1,3 km/h (1 Bft) 92,79 %
09.12.2022 06:00 1,8 C 1,3 C -0,6 C 93 % 1006,5 hPa 0,0 l/m 0,00 h 0,00 h 0 W/m 1,0 km/h (0 Bft) 99,34 %
09.12.2022 07:00 1,8 C 1,1 C -0,6 C 93 % 1006,3 hPa 0,0 l/m 0,00 h 0,00 h 0 W/m 0,6 km/h (0 Bft) 96,01 %
09.12.2022 08:00 1,8 C 1,4 C -0,6 C 93 % 1006,5 hPa 0,0 l/m 0,00 h 0,00 h 8 W/m 1,4 km/h (1 Bft) 97,28 %
09.12.2022 09:00 2,0 C 1,9 C -0,6 C 92 % 1006,8 hPa 0,0 l/m 0,00 h 0,00 h 31 W/m 0,7 km/h (0 Bft) 96,64 %
09.12.2022 10:00 2,3 C 2,4 C 0,0 C 89 % 1006,9 hPa 0,0 l/m 0,00 h 0,00 h 52 W/m 0,9 km/h (0 Bft) 98,49 %
09.12.2022 11:00 2,7 C 3,2 C 0,3 C 86 % 1006,8 hPa 0,0 l/m 0,00 h 0,00 h 89 W/m 0,5 km/h (0 Bft) 96,72 %
09.12.2022 12:00 3,3 C 4,3 C 0,6 C 83 % 1006,4 hPa 0,0 l/m 0,03 h 0,00 h 129 W/m 3,9 km/h (1 Bft) 95,59 %
09.12.2022 13:00 4,0 C 4,9 C 0,7 C 81 % 1006,2 hPa 0,2 l/m 0,20 h 0,00 h 131 W/m 1,2 km/h (1 Bft) 96,58 %
09.12.2022 14:00 3,8 C 3,7 C -0,4 C 80 % 1006,0 hPa 0,0 l/m 0,33 h 0,00 h 94 W/m 0,0 km/h (0 Bft) 97,58 %
09.12.2022 15:00 3,6 C 3,2 C -0,1 C 82 % 1006,1 hPa 0,0 l/m 0,27 h 0,00 h 51 W/m 0,6 km/h (0 Bft) 95,67 %
09.12.2022 16:00 2,9 C 2,2 C -0,8 C 84 % 1006,4 hPa 0,0 l/m 0,00 h 0,00 h 6 W/m 0,0 km/h (0 Bft) 98,43 %
09.12.2022 17:00 2,4 C 1,6 C -1,2 C 87 % 1006,5 hPa 0,0 l/m 0,00 h 0,00 h 0 W/m 0,0 km/h (0 Bft) 95,38 %
09.12.2022 18:00 1,9 C 1,1 C -1,7 C 88 % 1006,8 hPa 0,0 l/m 0,00 h 0,00 h 0 W/m 0,0 km/h (0 Bft) 99,63 %
09.12.2022 19:00 1,4 C -0,3 C -2,8 C 88 % 1007,1 hPa 0,0 l/m 0,00 h 0,00 h 0 W/m 0,0 km/h (0 Bft) 97,03 %
09.12.2022 20:00 0,5 C -0,1 C -2,8 C 88 % 1007,5 hPa 0,0 l/m 0,00 h 0,00 h 0 W/m 0,0 km/h (0 Bft) 96,81 %
09.12.2022 21:00 0,3 C -1,0 C -3,2 C 90 % 1007,7 hPa 0,0 l/m 0,00 h 0,00 h 0 W/m 0,0 km/h (0 Bft) 96,53 %
09.12.2022 22:00 -0,6 C -1,9 C -4,1 C 90 % 1008,0 hPa 0,0 l/m 0,00 h 0,00 h 0 W/m 0,0 km/h (0 Bft) 98,27 %
09.12.2022 23:00 -1,1 C -1,8 C -3,7 C 91 % 1008,1 hPa 0,0 l/m 0,00 h 0,00 h 0 W/m 0,0 km/h (0 Bft) 98,07 %
10.12.2022 00:00 -1,4 C -2,7 C -4,8 C 91 % 1008,3 hPa 0,0 l/m 0,00 h 0,00 h 0 W/m 0,0 km/h (0 Bft) 91,14 %
10.12.2022 01:00 -2,2 C -3,3 C -5,3 C 92 % 1008,6 hPa 0,0 l/m 0,00 h 0,00 h 0 W/m 0,0 km/h (0 Bft) 95,59 %
10.12.2022 02:00 -2,7 C -3,4 C -5,2 C 92 % 1008,8 hPa 0,0 l/m 0,00 h 0,00 h 0 W/m 0,0 km/h (0 Bft) 97,10 %
10.12.2022 03:00 -2,3 C -2,6 C -4,8 C 94 % 1009,1 hPa 0,0 l/m 0,00 h 0,00 h 0 W/m 0,0 km/h (0 Bft) 95,50 %
10.12.2022 04:00 -1,5 C -1,9 C -4,0 C 95 % 1009,2 hPa 0,0 l/m 0,00 h 0,00 h 0 W/m 0,0 km/h (0 Bft) 94,70 %
10.12.2022 05:00 -1,6 C -2,6 C -4,2 C 95 % 1009,3 hPa 0,0 l/m 0,00 h 0,00 h 0 W/m 0,0 km/h (0 Bft) 97,44 %
10.12.2022 06:00 -2,3 C -3,6 C -5,2 C 95 % 1009,4 hPa 0,0 l/m 0,00 h 0,00 h 0 W/m 0,0 km/h (0 Bft) 97,06 %
10.12.2022 07:00 -2,5 C -2,9 C -4,7 C 95 % 1009,8 hPa 0,0 l/m 0,00 h 0,00 h 0 W/m 0,0 km/h (0 Bft) 98,07 %
10.12.2022 08:00 -1,8 C -2,2 C -3,9 C 96 % 1010,2 hPa 0,0 l/m 0,00 h 0,00 h 5 W/m 1,5 km/h (1 Bft) 96,11 %
10.12.2022 09:00 -1,5 C -1,7 C -3,5 C 96 % 1010,7 hPa 0,0 l/m 0,00 h 0,00 h 20 W/m 6,6 km/h (2 Bft) 96,27 %
10.12.2022 10:00 -1,1 C -0,9 C -2,8 C 96 % 1011,2 hPa 0,0 l/m 0,00 h 0,00 h 56 W/m 6,9 km/h (2 Bft) 96,84 %
10.12.2022 11:00 -0,7 C -0,7 C -2,7 C 95 % 1011,3 hPa 0,0 l/m 0,00 h 0,00 h 64 W/m 7,1 km/h (2 Bft) 96,37 %
10.12.2022 12:00 -0,4 C -0,5 C -2,2 C 94 % 1011,1 hPa 0,0 l/m 0,00 h 0,00 h 76 W/m 6,9 km/h (2 Bft) 96,06 %
10.12.2022 13:00 -0,3 C -0,2 C -2,2 C 94 % 1011,1 hPa 0,0 l/m 0,00 h 0,00 h 70 W/m 6,0 km/h (2 Bft) 95,29 %
10.12.2022 14:00 -0,1 C -0,3 C -2,2 C 93 % 1011,3 hPa 0,0 l/m 0,00 h 0,00 h 38 W/m 7,8 km/h (2 Bft) 97,08 %
10.12.2022 15:00 0,1 C -0,3 C -2,2 C 93 % 1011,5 hPa 0,0 l/m 0,00 h 0,00 h 18 W/m 5,6 km/h (1 Bft) 96,45 %
10.12.2022 16:00 0,1 C -0,6 C -2,2 C 94 % 1011,8 hPa 0,0 l/m 0,00 h 0,00 h 5 W/m 6,9 km/h (2 Bft) 97,47 %
10.12.2022 17:00 0,0 C -0,6 C -2,2 C 94 % 1012,0 hPa 0,0 l/m 0,00 h 0,00 h 0 W/m 4,7 km/h (1 Bft) 94,44 %
10.12.2022 18:00 -0,1 C -0,6 C -2,7 C 94 % 1012,2 hPa 0,0 l/m 0,00 h 0,00 h 0 W/m 7,0 km/h (2 Bft) 95,50 %
10.12.2022 19:00 -0,2 C -0,7 C -2,8 C 95 % 1012,4 hPa 0,0 l/m 0,00 h 0,00 h 0 W/m 4,4 km/h (1 Bft) 97,38 %
10.12.2022 20:00 -0,4 C -1,0 C -2,8 C 95 % 1012,6 hPa 0,0 l/m 0,00 h 0,00 h 0 W/m 3,0 km/h (1 Bft) 92,56 %
10.12.2022 21:00 -0,3 C -0,6 C -2,8 C 96 % 1012,6 hPa 0,0 l/m 0,00 h 0,00 h 0 W/m 3,8 km/h (1 Bft) 95,40 %
10.12.2022 22:00 -0,2 C -0,6 C -2,4 C 96 % 1012,5 hPa 0,0 l/m 0,00 h 0,00 h 0 W/m 4,8 km/h (1 Bft) 96,96 %
10.12.2022 23:00 0,1 C -0,5 C -2,2 C 96 % 1012,5 hPa 0,0 l/m 0,00 h 0,00 h 0 W/m 4,0 km/h (1 Bft) 93,15 %
11.12.2022 00:00 -0,0 C -0,6 C -2,3 C 96 % 1012,5 hPa 0,0 l/m 0,00 h 0,00 h 0 W/m 3,1 km/h (1 Bft) 96,55 %
11.12.2022 01:00 -0,2 C -0,6 C -2,2 C 96 % 1012,5 hPa 0,0 l/m 0,00 h 0,00 h 0 W/m 2,3 km/h (1 Bft) 97,43 %
11.12.2022 02:00 -0,2 C -0,6 C -2,2 C 96 % 1012,4 hPa 0,0 l/m 0,00 h 0,00 h 0 W/m 4,5 km/h (1 Bft) 97,01 %
11.12.2022 03:00 -0,1 C -0,4 C -2,2 C 96 % 1012,1 hPa 0,0 l/m 0,00 h 0,00 h 0 W/m 4,2 km/h (1 Bft) 96,37 %
11.12.2022 04:00 0,1 C -0,0 C -2,2 C 96 % 1011,9 hPa 0,0 l/m 0,00 h 0,00 h 0 W/m 6,0 km/h (2 Bft) 96,08 %
11.12.2022 05:00 0,1 C -0,4 C -2,2 C 95 % 1011,7 hPa 0,0 l/m 0,00 h 0,00 h 0 W/m 7,7 km/h (2 Bft) 96,53 %
11.12.2022 06:00 0,1 C -0,6 C -2,2 C 95 % 1011,5 hPa 0,0 l/m 0,00 h 0,00 h 0 W/m 7,4 km/h (2 Bft) 96,65 %
11.12.2022 07:00 0,1 C -0,6 C -2,2 C 95 % 1011,3 hPa 0,0 l/m 0,00 h 0,00 h 0 W/m 6,2 km/h (2 Bft) 96,51 %
11.12.2022 08:00 0,1 C -0,4 C -2,2 C 95 % 1011,4 hPa 0,0 l/m 0,00 h 0,00 h 5 W/m 7,6 km/h (2 Bft) 96,85 %
11.12.2022 09:00 0,1 C 0,0 C -2,2 C 94 % 1011,5 hPa 0,0 l/m 0,00 h 0,00 h 8 W/m 4,7 km/h (1 Bft) 95,80 %
11.12.2022 10:00 0,2 C 0,0 C -2,1 C 92 % 1011,5 hPa 0,0 l/m 0,00 h 0,00 h 33 W/m 6,4 km/h (2 Bft) 96,00 %
11.12.2022 11:00 0,2 C 0,1 C -2,1 C 91 % 1011,4 hPa 0,0 l/m 0,00 h 0,00 h 59 W/m 8,0 km/h (2 Bft) 96,50 %
11.12.2022 12:00 0,3 C 0,3 C -1,9 C 90 % 1010,9 hPa 0,0 l/m 0,00 h 0,00 h 57 W/m 8,5 km/h (2 Bft) 95,52 %
11.12.2022 13:00 0,5 C 0,6 C -1,8 C 89 % 1010,5 hPa 0,0 l/m 0,00 h 0,00 h 46 W/m 2,7 km/h (1 Bft) 98,00 %
11.12.2022 14:00 0,7 C 0,6 C -1,7 C 88 % 1010,4 hPa 0,0 l/m 0,00 h 0,00 h 43 W/m 3,7 km/h (1 Bft) 97,22 %
11.12.2022 15:00 0,7 C 0,3 C -2,1 C 89 % 1010,6 hPa 0,0 l/m 0,00 h 0,00 h 15 W/m 3,0 km/h (1 Bft) 96,65 %
11.12.2022 16:00 0,4 C 0,0 C -2,4 C 88 % 1010,8 hPa 0,0 l/m 0,00 h 0,00 h 4 W/m 4,7 km/h (1 Bft) 95,23 %
11.12.2022 17:00 0,2 C -0,5 C -2,8 C 89 % 1010,9 hPa 0,0 l/m 0,00 h 0,00 h 0 W/m 1,3 km/h (1 Bft) 98,02 %
11.12.2022 18:00 0,1 C -0,6 C -2,8 C 90 % 1010,8 hPa 0,0 l/m 0,00 h 0,00 h 0 W/m 1,2 km/h (1 Bft) 97,24 %
11.12.2022 19:00 0,1 C -0,6 C -2,8 C 90 % 1010,7 hPa 0,0 l/m 0,00 h 0,00 h 0 W/m 0,6 km/h (0 Bft) 94,82 %
11.12.2022 20:00 0,2 C -0,5 C -2,8 C 90 % 1010,6 hPa 0,0 l/m 0,00 h 0,00 h 0 W/m 1,0 km/h (0 Bft) 98,18 %
11.12.2022 21:00 0,2 C -0,4 C -2,8 C 91 % 1010,6 hPa 0,0 l/m 0,00 h 0,00 h 0 W/m 1,1 km/h (0 Bft) 97,13 %
11.12.2022 22:00 0,4 C 0,0 C -2,8 C 92 % 1010,7 hPa 0,0 l/m 0,00 h 0,00 h 0 W/m 0,3 km/h (0 Bft) 95,83 %
11.12.2022 23:00 0,4 C 0,0 C -2,8 C 92 % 1010,9 hPa 0,0 l/m 0,00 h 0,00 h 0 W/m 0,2 km/h (0 Bft) 96,30 %
Min-Datum _ 10.12.22 10.12.22 10.12.22 09.12.22 09.12.22 - - - - 05.12.22 10.12.22
_ Min-Zeit 02:18 02:54 01:26 13:38 14:06 - - - - 03:52 17:20
Minimum _ -2,8 C -3,9 C -5,6 C 79 % 1005,9 hPa - - - - 0,0 km/h (0 Bft) 16,00 %
Max-Datum _ 07.12.22 06.12.22 07.12.22 06.12.22 05.12.22 05.12.22 06.12.22 05.12.22 06.12.22 08.12.22 05.12.22
_ Max-Zeit 12:58 13:15 12:32 10:04 20:30 12:08 13:10 06:00 13:15 13:12 00:50
Maximum _ 6,1 C 8,9 C 3,9 C 100 % 1020,8 hPa 1,0 l/m 0,08 h 0,08 h 295 W/m 25,7 km/h
O (4 Bft)
100,00 %
Durchschnitt _ 2,1 C 1,7 C -0,5 C 94 % 1013,1 hPa #11,2 l/m #2:35 h #18:59 h 47 W/m 4,0 km/h (1 Bft) 96,66 %
© 2022 W. Hausmann